Aqualoyalty — A8ZC6 — position and weather

sailwx.info

Track history (hours):
 
Tides and Currents Weather Stations Pressure Air Temp Water Temp Dewpoint Dewpoint Depression Visibility Wind Speed Wind Dir Waves Ship Positions

Aqualoyalty

Last reported at 2015-Jun-29 19:04 UTC. Time now 2015-Jun-30 14:32 UTC.
Position N 38°02' W 122°08'.

Length 249 m; draft 10.2 m.

Type: Ship. MMSI: 636015177.

Date/timePositionNaut miles runAvg speedWind from/ knotsBaromVisibWave heightAir tempDewpointWater temp
2015-Jun-29 19:04N 38°02' W 122°08'2 3.7
2015-Jun-29 18:29N 38°03' W 122°11'8 8.6
2015-Jun-29 17:34N 38°03' W 122°21'10 9.7
2015-Jun-29 16:34N 37°54' W 122°26'9 9.3
2015-Jun-29 15:34N 37°46' W 122°21'1 1.0
2015-Jun-29 14:33N 37°45' W 122°21'0 0.1
2015-Jun-29 13:33N 37°45' W 122°20'0 0.3
2015-Jun-29 12:33N 37°45' W 122°21'0 0.0
2015-Jun-29 11:33N 37°45' W 122°21'0 0.0
2015-Jun-29 10:33N 37°45' W 122°21'0 0.0
2015-Jun-29 09:33N 37°45' W 122°21'0 0.0
2015-Jun-29 08:33N 37°45' W 122°21'0 0.0
2015-Jun-29 07:34N 37°45' W 122°21'0 0.1
2015-Jun-29 06:31N 37°45' W 122°21'0 0.3
2015-Jun-29 05:33N 37°45' W 122°21'0 0.0
2015-Jun-29 04:33N 37°45' W 122°21'0 0.0
2015-Jun-29 03:33N 37°45' W 122°21'0 0.0
2015-Jun-29 02:34N 37°45' W 122°21'0 0.0
2015-Jun-29 01:34N 37°45' W 122°21'0 0.1
2015-Jun-29 00:34N 37°45' W 122°20'0 0.1
2015-Jun-28 23:28N 37°45' W 122°20'0 0.2
2015-Jun-28 22:33N 37°45' W 122°21'0 0.0
2015-Jun-28 21:31N 37°45' W 122°21'0 0.0
2015-Jun-28 20:33N 37°45' W 122°21'0 0.1
2015-Jun-28 19:33N 37°45' W 122°21'0 0.1
2015-Jun-28 18:33N 37°45' W 122°20'0 0.1
2015-Jun-28 17:33N 37°45' W 122°21'0 0.0
2015-Jun-28 16:32N 37°45' W 122°21'0 0.0
2015-Jun-28 15:33N 37°45' W 122°21'0 0.0
2015-Jun-28 14:33N 37°45' W 122°21'0 0.0
2015-Jun-28 13:33N 37°45' W 122°21'0 0.1
2015-Jun-28 12:31N 37°45' W 122°20'0 0.2
2015-Jun-28 11:33N 37°45' W 122°21'0 0.0
2015-Jun-28 10:33N 37°45' W 122°21'0 0.0
2015-Jun-28 09:33N 37°45' W 122°21'0 0.0
2015-Jun-28 08:33N 37°45' W 122°21'0 0.0
2015-Jun-28 07:33N 37°45' W 122°21'0 0.0
2015-Jun-28 06:33N 37°45' W 122°21'0 0.0
2015-Jun-28 05:33N 37°45' W 122°21'0 0.2
2015-Jun-28 04:33N 37°45' W 122°20'0 0.1
2015-Jun-28 03:33N 37°45' W 122°20'0 0.0
2015-Jun-28 02:33N 37°45' W 122°20'0 0.0
2015-Jun-28 01:33N 37°45' W 122°20'0 0.0
2015-Jun-28 00:33N 37°45' W 122°20'0 0.1
2015-Jun-27 23:33N 37°45' W 122°20'0 0.1
2015-Jun-27 22:33N 37°45' W 122°20'0 0.2
2015-Jun-27 21:33N 37°45' W 122°21'0 0.0
2015-Jun-27 20:33N 37°45' W 122°21'0 0.0
2015-Jun-27 19:33N 37°45' W 122°21'0 0.1
2015-Jun-27 18:34N 37°45' W 122°21'0 0.2
2015-Jun-27 17:33N 37°45' W 122°21'0 0.1
2015-Jun-27 16:33N 37°45' W 122°21'0 0.0
2015-Jun-27 15:31N 37°45' W 122°21'0 0.0
2015-Jun-27 14:32N 37°45' W 122°21'0 0.0
2015-Jun-27 13:33N 37°45' W 122°21'0 0.0
2015-Jun-27 12:31N 37°45' W 122°21'0 0.2
2015-Jun-27 11:32N 37°45' W 122°20'0 0.2
2015-Jun-27 10:33N 37°45' W 122°21'0 0.0
2015-Jun-27 09:31N 37°45' W 122°21'0 0.0
2015-Jun-27 08:32N 37°45' W 122°21'0 0.0
2015-Jun-27 07:34N 37°45' W 122°21'0 0.0
2015-Jun-27 06:34N 37°45' W 122°21'0 0.1
2015-Jun-27 05:32N 37°45' W 122°21'0 0.2
2015-Jun-27 04:33N 37°45' W 122°20'0 0.1
2015-Jun-27 03:32N 37°45' W 122°20'0 0.0
2015-Jun-27 02:33N 37°45' W 122°20'0 0.1
2015-Jun-27 01:31N 37°45' W 122°20'0 0.0
2015-Jun-27 00:33N 37°45' W 122°20'0 0.0
2015-Jun-26 23:32N 37°45' W 122°20'0 0.1
2015-Jun-26 22:33N 37°45' W 122°20'0 0.1
2015-Jun-26 21:34N 37°45' W 122°20'0 0.2
2015-Jun-26 20:32N 37°45' W 122°21'0 0.0
2015-Jun-26 19:33N 37°45' W 122°21'0 0.0
2015-Jun-26 18:33N 37°45' W 122°21'0 0.0
2015-Jun-26 17:34N 37°45' W 122°21'0 0.2
2015-Jun-26 16:33N 37°45' W 122°21'0 0.0
2015-Jun-26 15:32N 37°45' W 122°21'0 0.0
2015-Jun-26 14:33N 37°45' W 122°21'0 0.0
2015-Jun-26 13:34N 37°45' W 122°21'0 0.0
2015-Jun-26 12:33N 37°45' W 122°21'0 0.0
2015-Jun-26 11:33N 37°45' W 122°21'0 0.1
2015-Jun-26 10:32N 37°45' W 122°20'0 0.2
2015-Jun-26 09:32N 37°45' W 122°21'0 0.0
2015-Jun-26 08:33N 37°45' W 122°21'0 0.0
2015-Jun-26 07:33N 37°45' W 122°21'0 0.0
2015-Jun-26 06:33N 37°45' W 122°21'0 0.0
2015-Jun-26 05:34N 37°45' W 122°21'0 0.0
2015-Jun-26 04:33N 37°45' W 122°21'0 0.3
2015-Jun-26 03:33N 37°45' W 122°20'0 0.0
2015-Jun-26 02:33N 37°45' W 122°20'0 0.0
2015-Jun-26 01:33N 37°45' W 122°20'0 0.0
2015-Jun-26 00:34N 37°45' W 122°20'0 0.0
2015-Jun-25 23:33N 37°45' W 122°20'0 0.0
2015-Jun-25 22:34N 37°45' W 122°20'0 0.1
2015-Jun-25 21:33N 37°45' W 122°20'0 0.3
2015-Jun-25 20:33N 37°45' W 122°21'0 0.0
2015-Jun-25 19:32N 37°45' W 122°21'0 0.0
2015-Jun-25 18:33N 37°45' W 122°21'0 0.0
2015-Jun-25 17:33N 37°45' W 122°21'0 0.0
2015-Jun-25 16:33N 37°45' W 122°21'0 0.2
2015-Jun-25 15:30N 37°45' W 122°21'0 0.1
2015-Jun-25 14:33N 37°45' W 122°21'0 0.0
2015-Jun-25 13:32N 37°45' W 122°21'0 0.0
2015-Jun-25 12:31N 37°45' W 122°21'0 0.0
2015-Jun-25 11:33N 37°45' W 122°21'0 0.1
2015-Jun-25 10:33N 37°45' W 122°21'0 0.2
2015-Jun-25 09:33N 37°45' W 122°21'0 0.1
2015-Jun-25 08:33N 37°45' W 122°21'0 0.0
2015-Jun-25 07:33N 37°45' W 122°21'0 0.1
2015-Jun-25 06:34N 37°45' W 122°21'4 4.2
2015-Jun-25 05:33N 37°49' W 122°23'8 7.9
2015-Jun-25 04:33N 37°47' W 122°33'10 9.6
2015-Jun-25 03:34N 37°43' W 122°44'9 9.2
2015-Jun-25 02:34N 37°37' W 122°53'1212.3
2015-Jun-25 01:34N 37°30' W 123°06'1111.1
2015-Jun-25 00:33N 37°19' W 123°09'1211.7
2015-Jun-24 23:30N 37°07' W 123°09'1311.7
2015-Jun-24 22:22N 36°54' W 123°11'1011.8
2015-Jun-24 21:34N 36°44' W 123°12'1211.8
2015-Jun-24 20:33N 36°32' W 123°15'1211.6
2015-Jun-24 19:34N 36°21' W 123°17'1010.1
2015-Jun-24 18:34N 36°11' W 123°18'2 1.6
2015-Jun-24 17:33N 36°10' W 123°20'1111.1
2015-Jun-24 16:34N 35°59' W 123°21'1110.8
2015-Jun-24 15:34N 35°49' W 123°24'1111.0
2015-Jun-24 14:34N 35°38' W 123°28'1110.8
2015-Jun-24 13:32N 35°28' W 123°32'1010.8
2015-Jun-24 12:33N 35°18' W 123°36'1210.2
2015-Jun-24 11:23N 35°06' W 123°39'910.7
2015-Jun-24 10:34N 34°58' W 123°33'1110.8
2015-Jun-24 09:33N 34°48' W 123°27'1110.7
2015-Jun-24 08:33N 34°39' W 123°21'1110.6
2015-Jun-24 07:34N 34°30' W 123°15'1110.7
2015-Jun-24 06:34N 34°20' W 123°09'1110.9
2015-Jun-24 05:33N 34°11' W 123°03'1110.8
2015-Jun-24 04:34N 34°01' W 122°57'1110.8
2015-Jun-24 03:34N 33°52' W 122°51'1111.0
2015-Jun-24 02:34N 33°43' W 122°43'1311.8
2015-Jun-24 01:30N 33°38' W 122°29'1212.3
2015-Jun-24 00:34N 33°38' W 122°16'1212.1
2015-Jun-23 23:33N 33°37' W 122°01'1211.7
2015-Jun-23 22:34N 33°36' W 121°47'1211.5
2015-Jun-23 21:33N 33°36' W 121°33'1211.5
2015-Jun-23 20:34N 33°36' W 121°19'1211.7
2015-Jun-23 19:33N 33°36' W 121°05'511.8
2015-Jun-23 19:06N 33°36' W 120°59'138 4.1
2015-Jun-22 09:14N 33°45' W 118°13'0 0.0
2015-Jun-22 08:32N 33°45' W 118°13'0 0.2
2015-Jun-22 07:34N 33°45' W 118°13'2 1.6
2015-Jun-22 06:31N 33°44' W 118°13'0 0.0
2015-Jun-22 05:31N 33°44' W 118°13'0 0.0
2015-Jun-22 04:31N 33°44' W 118°13'0 0.0
2015-Jun-22 03:31N 33°44' W 118°13'0 0.0
2015-Jun-22 02:31N 33°44' W 118°13'0 0.0
2015-Jun-22 01:31N 33°44' W 118°13'0 0.0
2015-Jun-22 00:31N 33°44' W 118°13'0 0.0
2015-Jun-21 23:31N 33°44' W 118°13'0 0.0
2015-Jun-21 22:31N 33°44' W 118°13'0 0.0
2015-Jun-21 21:31N 33°44' W 118°13'0 0.1
2015-Jun-21 20:32N 33°44' W 118°13'0 0.1
2015-Jun-21 19:31N 33°44' W 118°13'0 0.1
2015-Jun-21 18:31N 33°44' W 118°13'0 0.0
2015-Jun-21 17:31N 33°44' W 118°13'0 0.0
2015-Jun-21 16:31N 33°44' W 118°13'0 0.0
2015-Jun-21 15:31N 33°44' W 118°13'0 0.0
2015-Jun-21 14:32N 33°44' W 118°13'0 0.1
2015-Jun-21 13:31N 33°44' W 118°13'0 0.0
2015-Jun-21 12:31N 33°44' W 118°13'0 0.0
2015-Jun-21 11:31N 33°44' W 118°13'0 0.1
2015-Jun-21 10:31N 33°44' W 118°13'0 0.0
2015-Jun-21 09:31N 33°44' W 118°13'0 0.1
2015-Jun-21 08:31N 33°44' W 118°13'0 0.0
2015-Jun-21 07:31N 33°44' W 118°13'0 0.0
2015-Jun-21 06:31N 33°44' W 118°13'0 0.0
2015-Jun-21 05:31N 33°44' W 118°13'0 0.0
2015-Jun-21 04:32N 33°44' W 118°13'0 0.0
2015-Jun-21 03:31N 33°44' W 118°13'0 0.0
2015-Jun-21 02:32N 33°44' W 118°13'0 0.0
2015-Jun-21 01:31N 33°44' W 118°13'0 0.0
2015-Jun-21 00:31N 33°44' W 118°13'0 0.0
2015-Jun-20 23:31N 33°44' W 118°13'0 0.0
2015-Jun-20 22:31N 33°44' W 118°13'0 0.1
2015-Jun-20 21:31N 33°44' W 118°13'0 0.1
2015-Jun-20 20:32N 33°44' W 118°13'0 0.1
2015-Jun-20 19:32N 33°44' W 118°13'0 0.0
2015-Jun-20 18:31N 33°44' W 118°13'0 0.0
2015-Jun-20 17:31N 33°44' W 118°13'0 0.1
2015-Jun-20 16:31N 33°44' W 118°13'0 0.1
2015-Jun-20 15:31N 33°44' W 118°13'0 0.0
2015-Jun-20 13:04N 33°44' W 118°13'0 0.0
2015-Jun-20 11:28N 33°44' W 118°13'0 0.1
2015-Jun-20 10:31N 33°44' W 118°13'0 0.1
2015-Jun-20 09:31N 33°44' W 118°13'0 0.1
2015-Jun-20 08:28N 33°44' W 118°13'0 0.0
2015-Jun-20 07:31N 33°44' W 118°13'0 0.0
2015-Jun-20 06:31N 33°44' W 118°13'0 0.0
2015-Jun-20 05:31N 33°44' W 118°13'0 0.0
2015-Jun-20 04:10N 33°44' W 118°13'0 0.0
2015-Jun-20 03:31N 33°44' W 118°13'0 0.0
2015-Jun-20 02:31N 33°44' W 118°13'0 0.0
2015-Jun-20 01:31N 33°44' W 118°13'0 0.0
2015-Jun-20 00:31N 33°44' W 118°13'0 0.0
2015-Jun-19 23:31N 33°44' W 118°13'0 0.0
2015-Jun-19 22:31N 33°44' W 118°13'0 0.0
2015-Jun-19 21:28N 33°44' W 118°13'0 0.1
2015-Jun-19 20:31N 33°44' W 118°13'0 0.1
2015-Jun-19 19:31N 33°44' W 118°13'  
Track history (hours):
 
Tides and Currents Weather Stations Pressure Air Temp Water Temp Dewpoint Dewpoint Depression Visibility Wind Speed Wind Dir Waves Ship Positions

Aqualoyalty

Last reported at 2015-Jun-29 19:04 UTC. Time now 2015-Jun-30 14:32 UTC.
Position N 38°02' W 122°08'.

Length 249 m; draft 10.2 m.

Type: Ship. MMSI: 636015177.

Date/timePositionNaut miles runAvg speedWind from/ knotsBaromVisibWave heightAir tempDewpointWater temp
2015-Jun-29 19:04N 38°02' W 122°08'2 3.7
2015-Jun-29 18:29N 38°03' W 122°11'8 8.6
2015-Jun-29 17:34N 38°03' W 122°21'10 9.7
2015-Jun-29 16:34N 37°54' W 122°26'9 9.3
2015-Jun-29 15:34N 37°46' W 122°21'1 1.0
2015-Jun-29 14:33N 37°45' W 122°21'0 0.1
2015-Jun-29 13:33N 37°45' W 122°20'0 0.3
2015-Jun-29 12:33N 37°45' W 122°21'0 0.0
2015-Jun-29 11:33N 37°45' W 122°21'0 0.0
2015-Jun-29 10:33N 37°45' W 122°21'0 0.0
2015-Jun-29 09:33N 37°45' W 122°21'0 0.0
2015-Jun-29 08:33N 37°45' W 122°21'0 0.0
2015-Jun-29 07:34N 37°45' W 122°21'0 0.1
2015-Jun-29 06:31N 37°45' W 122°21'0 0.3
2015-Jun-29 05:33N 37°45' W 122°21'0 0.0
2015-Jun-29 04:33N 37°45' W 122°21'0 0.0
2015-Jun-29 03:33N 37°45' W 122°21'0 0.0
2015-Jun-29 02:34N 37°45' W 122°21'0 0.0
2015-Jun-29 01:34N 37°45' W 122°21'0 0.1
2015-Jun-29 00:34N 37°45' W 122°20'0 0.1
2015-Jun-28 23:28N 37°45' W 122°20'0 0.2
2015-Jun-28 22:33N 37°45' W 122°21'0 0.0
2015-Jun-28 21:31N 37°45' W 122°21'0 0.0
2015-Jun-28 20:33N 37°45' W 122°21'0 0.1
2015-Jun-28 19:33N 37°45' W 122°21'0 0.1
2015-Jun-28 18:33N 37°45' W 122°20'0 0.1
2015-Jun-28 17:33N 37°45' W 122°21'0 0.0
2015-Jun-28 16:32N 37°45' W 122°21'0 0.0
2015-Jun-28 15:33N 37°45' W 122°21'0 0.0
2015-Jun-28 14:33N 37°45' W 122°21'0 0.0
2015-Jun-28 13:33N 37°45' W 122°21'0 0.1
2015-Jun-28 12:31N 37°45' W 122°20'0 0.2
2015-Jun-28 11:33N 37°45' W 122°21'0 0.0
2015-Jun-28 10:33N 37°45' W 122°21'0 0.0
2015-Jun-28 09:33N 37°45' W 122°21'0 0.0
2015-Jun-28 08:33N 37°45' W 122°21'0 0.0
2015-Jun-28 07:33N 37°45' W 122°21'0 0.0
2015-Jun-28 06:33N 37°45' W 122°21'0 0.0
2015-Jun-28 05:33N 37°45' W 122°21'0 0.2
2015-Jun-28 04:33N 37°45' W 122°20'0 0.1
2015-Jun-28 03:33N 37°45' W 122°20'0 0.0
2015-Jun-28 02:33N 37°45' W 122°20'0 0.0
2015-Jun-28 01:33N 37°45' W 122°20'0 0.0
2015-Jun-28 00:33N 37°45' W 122°20'0 0.1
2015-Jun-27 23:33N 37°45' W 122°20'0 0.1
2015-Jun-27 22:33N 37°45' W 122°20'0 0.2
2015-Jun-27 21:33N 37°45' W 122°21'0 0.0
2015-Jun-27 20:33N 37°45' W 122°21'0 0.0
2015-Jun-27 19:33N 37°45' W 122°21'0 0.1
2015-Jun-27 18:34N 37°45' W 122°21'0 0.2
2015-Jun-27 17:33N 37°45' W 122°21'0 0.1
2015-Jun-27 16:33N 37°45' W 122°21'0 0.0
2015-Jun-27 15:31N 37°45' W 122°21'0 0.0
2015-Jun-27 14:32N 37°45' W 122°21'0 0.0
2015-Jun-27 13:33N 37°45' W 122°21'0 0.0
2015-Jun-27 12:31N 37°45' W 122°21'0 0.2
2015-Jun-27 11:32N 37°45' W 122°20'0 0.2
2015-Jun-27 10:33N 37°45' W 122°21'0 0.0
2015-Jun-27 09:31N 37°45' W 122°21'0 0.0
2015-Jun-27 08:32N 37°45' W 122°21'0 0.0
2015-Jun-27 07:34N 37°45' W 122°21'0 0.0
2015-Jun-27 06:34N 37°45' W 122°21'0 0.1
2015-Jun-27 05:32N 37°45' W 122°21'0 0.2
2015-Jun-27 04:33N 37°45' W 122°20'0 0.1
2015-Jun-27 03:32N 37°45' W 122°20'0 0.0
2015-Jun-27 02:33N 37°45' W 122°20'0 0.1
2015-Jun-27 01:31N 37°45' W 122°20'0 0.0
2015-Jun-27 00:33N 37°45' W 122°20'0 0.0
2015-Jun-26 23:32N 37°45' W 122°20'0 0.1
2015-Jun-26 22:33N 37°45' W 122°20'0 0.1
2015-Jun-26 21:34N 37°45' W 122°20'0 0.2
2015-Jun-26 20:32N 37°45' W 122°21'0 0.0
2015-Jun-26 19:33N 37°45' W 122°21'0 0.0
2015-Jun-26 18:33N 37°45' W 122°21'0 0.0
2015-Jun-26 17:34N 37°45' W 122°21'0 0.2
2015-Jun-26 16:33N 37°45' W 122°21'0 0.0
2015-Jun-26 15:32N 37°45' W 122°21'0 0.0
2015-Jun-26 14:33N 37°45' W 122°21'0 0.0
2015-Jun-26 13:34N 37°45' W 122°21'0 0.0
2015-Jun-26 12:33N 37°45' W 122°21'0 0.0
2015-Jun-26 11:33N 37°45' W 122°21'0 0.1
2015-Jun-26 10:32N 37°45' W 122°20'0 0.2
2015-Jun-26 09:32N 37°45' W 122°21'0 0.0
2015-Jun-26 08:33N 37°45' W 122°21'0 0.0
2015-Jun-26 07:33N 37°45' W 122°21'0 0.0
2015-Jun-26 06:33N 37°45' W 122°21'0 0.0
2015-Jun-26 05:34N 37°45' W 122°21'0 0.0
2015-Jun-26 04:33N 37°45' W 122°21'0 0.3
2015-Jun-26 03:33N 37°45' W 122°20'0 0.0
2015-Jun-26 02:33N 37°45' W 122°20'0 0.0
2015-Jun-26 01:33N 37°45' W 122°20'0 0.0
2015-Jun-26 00:34N 37°45' W 122°20'0 0.0
2015-Jun-25 23:33N 37°45' W 122°20'0 0.0
2015-Jun-25 22:34N 37°45' W 122°20'0 0.1
2015-Jun-25 21:33N 37°45' W 122°20'0 0.3
2015-Jun-25 20:33N 37°45' W 122°21'0 0.0
2015-Jun-25 19:32N 37°45' W 122°21'0 0.0
2015-Jun-25 18:33N 37°45' W 122°21'0 0.0
2015-Jun-25 17:33N 37°45' W 122°21'0 0.0
2015-Jun-25 16:33N 37°45' W 122°21'0 0.2
2015-Jun-25 15:30N 37°45' W 122°21'0 0.1
2015-Jun-25 14:33N 37°45' W 122°21'0 0.0
2015-Jun-25 13:32N 37°45' W 122°21'0 0.0
2015-Jun-25 12:31N 37°45' W 122°21'0 0.0
2015-Jun-25 11:33N 37°45' W 122°21'0 0.1
2015-Jun-25 10:33N 37°45' W 122°21'0 0.2
2015-Jun-25 09:33N 37°45' W 122°21'0 0.1
2015-Jun-25 08:33N 37°45' W 122°21'0 0.0
2015-Jun-25 07:33N 37°45' W 122°21'0 0.1
2015-Jun-25 06:34N 37°45' W 122°21'4 4.2
2015-Jun-25 05:33N 37°49' W 122°23'8 7.9
2015-Jun-25 04:33N 37°47' W 122°33'10 9.6
2015-Jun-25 03:34N 37°43' W 122°44'9 9.2
2015-Jun-25 02:34N 37°37' W 122°53'1212.3
2015-Jun-25 01:34N 37°30' W 123°06'1111.1
2015-Jun-25 00:33N 37°19' W 123°09'1211.7
2015-Jun-24 23:30N 37°07' W 123°09'1311.7
2015-Jun-24 22:22N 36°54' W 123°11'1011.8
2015-Jun-24 21:34N 36°44' W 123°12'1211.8
2015-Jun-24 20:33N 36°32' W 123°15'1211.6
2015-Jun-24 19:34N 36°21' W 123°17'1010.1
2015-Jun-24 18:34N 36°11' W 123°18'2 1.6
2015-Jun-24 17:33N 36°10' W 123°20'1111.1
2015-Jun-24 16:34N 35°59' W 123°21'1110.8
2015-Jun-24 15:34N 35°49' W 123°24'1111.0
2015-Jun-24 14:34N 35°38' W 123°28'1110.8
2015-Jun-24 13:32N 35°28' W 123°32'1010.8
2015-Jun-24 12:33N 35°18' W 123°36'1210.2
2015-Jun-24 11:23N 35°06' W 123°39'910.7
2015-Jun-24 10:34N 34°58' W 123°33'1110.8
2015-Jun-24 09:33N 34°48' W 123°27'1110.7
2015-Jun-24 08:33N 34°39' W 123°21'1110.6
2015-Jun-24 07:34N 34°30' W 123°15'1110.7
2015-Jun-24 06:34N 34°20' W 123°09'1110.9
2015-Jun-24 05:33N 34°11' W 123°03'1110.8
2015-Jun-24 04:34N 34°01' W 122°57'1110.8
2015-Jun-24 03:34N 33°52' W 122°51'1111.0
2015-Jun-24 02:34N 33°43' W 122°43'1311.8
2015-Jun-24 01:30N 33°38' W 122°29'1212.3
2015-Jun-24 00:34N 33°38' W 122°16'1212.1
2015-Jun-23 23:33N 33°37' W 122°01'1211.7
2015-Jun-23 22:34N 33°36' W 121°47'1211.5
2015-Jun-23 21:33N 33°36' W 121°33'1211.5
2015-Jun-23 20:34N 33°36' W 121°19'1211.7
2015-Jun-23 19:33N 33°36' W 121°05'511.8
2015-Jun-23 19:06N 33°36' W 120°59'138 4.1
2015-Jun-22 09:14N 33°45' W 118°13'0 0.0
2015-Jun-22 08:32N 33°45' W 118°13'0 0.2
2015-Jun-22 07:34N 33°45' W 118°13'2 1.6
2015-Jun-22 06:31N 33°44' W 118°13'0 0.0
2015-Jun-22 05:31N 33°44' W 118°13'0 0.0
2015-Jun-22 04:31N 33°44' W 118°13'0 0.0
2015-Jun-22 03:31N 33°44' W 118°13'0 0.0
2015-Jun-22 02:31N 33°44' W 118°13'0 0.0
2015-Jun-22 01:31N 33°44' W 118°13'0 0.0
2015-Jun-22 00:31N 33°44' W 118°13'0 0.0
2015-Jun-21 23:31N 33°44' W 118°13'0 0.0
2015-Jun-21 22:31N 33°44' W 118°13'0 0.0
2015-Jun-21 21:31N 33°44' W 118°13'0 0.1
2015-Jun-21 20:32N 33°44' W 118°13'0 0.1
2015-Jun-21 19:31N 33°44' W 118°13'0 0.1
2015-Jun-21 18:31N 33°44' W 118°13'0 0.0
2015-Jun-21 17:31N 33°44' W 118°13'0 0.0
2015-Jun-21 16:31N 33°44' W 118°13'0 0.0
2015-Jun-21 15:31N 33°44' W 118°13'0 0.0
2015-Jun-21 14:32N 33°44' W 118°13'0 0.1
2015-Jun-21 13:31N 33°44' W 118°13'0 0.0
2015-Jun-21 12:31N 33°44' W 118°13'0 0.0
2015-Jun-21 11:31N 33°44' W 118°13'0 0.1
2015-Jun-21 10:31N 33°44' W 118°13'0 0.0
2015-Jun-21 09:31N 33°44' W 118°13'0 0.1
2015-Jun-21 08:31N 33°44' W 118°13'0 0.0
2015-Jun-21 07:31N 33°44' W 118°13'0 0.0
2015-Jun-21 06:31N 33°44' W 118°13'0 0.0
2015-Jun-21 05:31N 33°44' W 118°13'0 0.0
2015-Jun-21 04:32N 33°44' W 118°13'0 0.0
2015-Jun-21 03:31N 33°44' W 118°13'0 0.0
2015-Jun-21 02:32N 33°44' W 118°13'0 0.0
2015-Jun-21 01:31N 33°44' W 118°13'0 0.0
2015-Jun-21 00:31N 33°44' W 118°13'0 0.0
2015-Jun-20 23:31N 33°44' W 118°13'0 0.0
2015-Jun-20 22:31N 33°44' W 118°13'0 0.1
2015-Jun-20 21:31N 33°44' W 118°13'0 0.1
2015-Jun-20 20:32N 33°44' W 118°13'0 0.1
2015-Jun-20 19:32N 33°44' W 118°13'0 0.0
2015-Jun-20 18:31N 33°44' W 118°13'0 0.0
2015-Jun-20 17:31N 33°44' W 118°13'0 0.1
2015-Jun-20 16:31N 33°44' W 118°13'0 0.1
2015-Jun-20 15:31N 33°44' W 118°13'0 0.0
2015-Jun-20 13:04N 33°44' W 118°13'0 0.0
2015-Jun-20 11:28N 33°44' W 118°13'0 0.1
2015-Jun-20 10:31N 33°44' W 118°13'0 0.1
2015-Jun-20 09:31N 33°44' W 118°13'0 0.1
2015-Jun-20 08:28N 33°44' W 118°13'0 0.0
2015-Jun-20 07:31N 33°44' W 118°13'0 0.0
2015-Jun-20 06:31N 33°44' W 118°13'0 0.0
2015-Jun-20 05:31N 33°44' W 118°13'0 0.0
2015-Jun-20 04:10N 33°44' W 118°13'0 0.0
2015-Jun-20 03:31N 33°44' W 118°13'0 0.0
2015-Jun-20 02:31N 33°44' W 118°13'0 0.0
2015-Jun-20 01:31N 33°44' W 118°13'0 0.0
2015-Jun-20 00:31N 33°44' W 118°13'0 0.0
2015-Jun-19 23:31N 33°44' W 118°13'0 0.0
2015-Jun-19 22:31N 33°44' W 118°13'0 0.0
2015-Jun-19 21:28N 33°44' W 118°13'0 0.1
2015-Jun-19 20:31N 33°44' W 118°13'0 0.1
2015-Jun-19 19:31N 33°44' W 118°13'  

Dump ship's entire track history